createdAt,value
2019-03-18T00:00:05.034Z,1.80
2019-03-18T00:02:35.665Z,1.70
2019-03-18T00:05:06.416Z,1.80
2019-03-18T00:07:37.073Z,1.80
2019-03-18T00:10:08.059Z,1.70
2019-03-18T00:12:38.812Z,1.70
2019-03-18T00:15:09.524Z,1.70
2019-03-18T00:17:40.589Z,1.70
2019-03-18T00:20:11.835Z,1.70
2019-03-18T00:22:42.790Z,1.70
2019-03-18T00:25:13.727Z,1.60
2019-03-18T00:27:44.533Z,1.60
2019-03-18T00:30:16.153Z,1.50
2019-03-18T00:32:46.866Z,1.60
2019-03-18T00:35:17.649Z,1.50
2019-03-18T00:37:48.247Z,1.60
2019-03-18T00:40:18.955Z,1.70
2019-03-18T00:42:49.653Z,1.70
2019-03-18T00:45:20.237Z,1.80
2019-03-18T00:47:50.839Z,1.80
2019-03-18T00:50:21.755Z,1.90
2019-03-18T00:52:52.506Z,1.80
2019-03-18T00:55:23.089Z,1.90
2019-03-18T00:57:53.769Z,1.90
2019-03-18T01:00:24.453Z,2.00
2019-03-18T01:02:55.358Z,1.90
2019-03-18T01:05:26.291Z,2.00
2019-03-18T01:07:56.982Z,2.00
2019-03-18T01:10:27.826Z,1.90
2019-03-18T01:12:58.439Z,1.90
2019-03-18T01:15:29.160Z,1.90
2019-03-18T01:18:00.023Z,1.90
2019-03-18T01:20:30.604Z,1.90
2019-03-18T01:23:01.280Z,1.90
2019-03-18T01:25:31.852Z,1.90
2019-03-18T01:28:02.438Z,1.80
2019-03-18T01:30:33.169Z,1.90
2019-03-18T01:33:04.120Z,1.90
2019-03-18T01:35:34.720Z,1.90
2019-03-18T01:38:05.465Z,1.90
2019-03-18T01:40:36.059Z,1.90
2019-03-18T01:43:06.954Z,1.90
2019-03-18T01:45:41.027Z,1.90
2019-03-18T01:48:10.352Z,1.90
2019-03-18T01:50:41.297Z,1.90
2019-03-18T01:53:12.238Z,1.90
2019-03-18T01:55:42.819Z,1.90
2019-03-18T01:58:13.411Z,2.00
2019-03-18T02:00:44.104Z,2.00
2019-03-18T02:03:14.753Z,2.00
2019-03-18T02:05:45.350Z,2.00
2019-03-18T02:08:16.104Z,2.00
2019-03-18T02:10:46.676Z,2.10
2019-03-18T02:13:17.318Z,2.20
2019-03-18T02:15:53.228Z,2.10
2019-03-18T02:18:20.321Z,2.20
2019-03-18T02:20:51.257Z,2.20
2019-03-18T02:23:22.411Z,2.20
2019-03-18T02:25:52.976Z,2.20
2019-03-18T02:28:23.565Z,2.20
2019-03-18T02:30:54.255Z,2.20
2019-03-18T02:33:24.834Z,2.20
2019-03-18T02:35:55.778Z,2.10
2019-03-18T02:38:26.486Z,2.10
2019-03-18T02:40:57.101Z,2.20
2019-03-18T02:43:27.691Z,2.20
2019-03-18T02:46:10.154Z,2.20
2019-03-18T02:48:30.673Z,2.20
2019-03-18T02:51:01.333Z,2.20
2019-03-18T02:53:31.944Z,2.10
2019-03-18T02:56:02.512Z,2.20
2019-03-18T02:58:33.230Z,2.20
2019-03-18T03:01:03.814Z,2.00
2019-03-18T03:03:36.931Z,1.90
2019-03-18T03:06:06.871Z,1.90
2019-03-18T03:08:37.550Z,2.00
2019-03-18T03:11:08.133Z,2.00
2019-03-18T03:13:38.871Z,1.90
2019-03-18T03:16:20.384Z,1.80
2019-03-18T03:18:42.461Z,1.90
2019-03-18T03:21:13.057Z,1.90
2019-03-18T03:23:43.728Z,1.80
2019-03-18T03:26:14.319Z,1.80
2019-03-18T03:28:45.228Z,1.90
2019-03-18T03:31:15.846Z,1.80
2019-03-18T03:33:46.705Z,1.80
2019-03-18T03:36:17.580Z,1.90
2019-03-18T03:38:48.319Z,1.90
2019-03-18T03:41:18.952Z,1.90
2019-03-18T03:43:49.551Z,1.90
2019-03-18T03:46:20.609Z,1.90
2019-03-18T03:48:51.188Z,1.90
2019-03-18T03:51:22.081Z,1.90
2019-03-18T03:53:52.979Z,1.90
2019-03-18T03:56:24.320Z,1.90
2019-03-18T03:58:54.899Z,1.90
2019-03-18T04:01:29.275Z,1.80
2019-03-18T04:03:57.794Z,1.80
2019-03-18T04:06:29.408Z,1.80
2019-03-18T04:09:00.101Z,1.70
2019-03-18T04:11:30.701Z,1.70
2019-03-18T04:14:01.628Z,1.70
2019-03-18T04:16:32.322Z,1.70
2019-03-18T04:19:02.905Z,1.70
2019-03-18T04:21:34.299Z,1.70
2019-03-18T04:24:04.944Z,1.70
2019-03-18T04:26:35.546Z,1.60
2019-03-18T04:29:06.122Z,1.60
2019-03-18T04:31:36.814Z,1.60
2019-03-18T04:34:08.323Z,1.60
2019-03-18T04:36:38.923Z,1.60
2019-03-18T04:39:09.952Z,1.60
2019-03-18T04:41:40.552Z,1.70
2019-03-18T04:44:11.441Z,1.70
2019-03-18T04:46:42.141Z,1.70
2019-03-18T04:49:12.806Z,1.60
2019-03-18T04:51:43.759Z,1.60
2019-03-18T04:54:14.334Z,1.60
2019-03-18T04:56:44.921Z,1.70
2019-03-18T04:59:15.509Z,1.70
2019-03-18T05:01:46.126Z,1.70
2019-03-18T05:04:16.854Z,1.70
2019-03-18T05:06:47.452Z,1.70
2019-03-18T05:09:18.364Z,1.70
2019-03-18T05:11:49.069Z,1.70
2019-03-18T05:14:19.968Z,1.70
2019-03-18T05:16:50.551Z,1.70
2019-03-18T05:19:21.255Z,1.70
2019-03-18T05:21:51.844Z,1.70
2019-03-18T05:24:22.769Z,1.70
2019-03-18T05:26:53.466Z,1.70
2019-03-18T05:29:24.036Z,1.70
2019-03-18T05:31:54.995Z,1.80
2019-03-18T05:34:25.658Z,1.80
2019-03-18T05:36:56.228Z,1.90
2019-03-18T05:39:26.814Z,1.90
2019-03-18T05:41:57.771Z,1.90
2019-03-18T05:44:28.343Z,1.90
2019-03-18T05:46:58.952Z,1.90
2019-03-18T05:49:29.629Z,2.00
2019-03-18T05:52:00.558Z,2.00
2019-03-18T05:54:31.142Z,1.90
2019-03-18T05:57:01.846Z,1.90
2019-03-18T05:59:32.702Z,2.00
2019-03-18T06:02:03.408Z,2.00
2019-03-18T06:04:34.374Z,2.00
2019-03-18T06:07:05.326Z,2.00
2019-03-18T06:09:35.907Z,2.00
2019-03-18T06:12:06.567Z,2.00
2019-03-18T06:14:37.136Z,2.00
2019-03-18T06:17:07.707Z,2.00
2019-03-18T06:19:38.343Z,2.00
2019-03-18T06:22:08.934Z,2.00
2019-03-18T06:24:39.488Z,2.00
2019-03-18T06:27:10.512Z,2.10
2019-03-18T06:29:41.093Z,2.10
2019-03-18T06:32:12.034Z,2.10
2019-03-18T06:34:42.738Z,2.10
2019-03-18T06:37:13.362Z,2.10
2019-03-18T06:39:43.933Z,2.10
2019-03-18T06:42:14.892Z,2.10
2019-03-18T06:44:45.831Z,2.00
2019-03-18T06:47:16.415Z,2.00
2019-03-18T06:49:47.028Z,2.10
2019-03-18T06:52:17.960Z,2.00
2019-03-18T06:54:48.536Z,2.10
2019-03-18T06:57:19.241Z,2.20
2019-03-18T06:59:49.814Z,2.20
2019-03-18T07:02:20.513Z,2.20
2019-03-18T07:04:51.087Z,2.20
2019-03-18T07:07:21.657Z,2.30
2019-03-18T07:09:52.622Z,2.30
2019-03-18T07:12:23.209Z,2.40
2019-03-18T07:14:53.782Z,2.50
2019-03-18T07:17:24.403Z,2.50
2019-03-18T07:19:54.983Z,2.60
2019-03-18T07:22:25.660Z,2.50
2019-03-18T07:24:56.610Z,2.60
2019-03-18T07:27:27.201Z,2.60
2019-03-18T07:29:57.849Z,2.60
2019-03-18T07:32:28.539Z,2.60
2019-03-18T07:34:59.228Z,2.60
2019-03-18T07:37:29.825Z,2.60
2019-03-18T07:40:00.489Z,2.60
2019-03-18T07:42:31.759Z,2.60
2019-03-18T07:45:02.688Z,2.70
2019-03-18T07:47:33.620Z,2.60
2019-03-18T07:50:04.548Z,2.60
2019-03-18T07:52:35.254Z,2.60
2019-03-18T07:55:06.134Z,2.70
2019-03-18T07:57:36.829Z,2.70
2019-03-18T08:00:07.448Z,3.00
2019-03-18T08:02:38.045Z,3.00
2019-03-18T08:05:09.774Z,2.90
2019-03-18T08:07:40.366Z,2.90
2019-03-18T08:10:11.208Z,3.20
2019-03-18T08:12:42.234Z,3.20
2019-03-18T08:15:12.835Z,3.30
2019-03-18T08:17:43.536Z,3.40
2019-03-18T08:20:14.686Z,3.50
2019-03-18T08:22:45.226Z,3.60
2019-03-18T08:25:15.751Z,3.80
2019-03-18T08:27:46.597Z,3.70
2019-03-18T08:30:17.288Z,4.10
2019-03-18T08:32:48.218Z,4.10
2019-03-18T08:35:18.800Z,4.10
2019-03-18T08:37:49.522Z,4.00
2019-03-18T08:40:20.756Z,4.10
2019-03-18T08:42:51.424Z,4.30
2019-03-18T08:45:22.421Z,4.50
2019-03-18T08:47:53.372Z,4.60
2019-03-18T08:50:24.310Z,4.50
2019-03-18T08:52:54.937Z,4.60
2019-03-18T08:55:25.531Z,4.60
2019-03-18T08:57:56.296Z,4.70
2019-03-18T09:00:26.886Z,4.70
2019-03-18T09:02:57.587Z,4.80
2019-03-18T09:05:28.199Z,4.90
2019-03-18T09:07:58.791Z,4.80
2019-03-18T09:10:29.733Z,4.90
2019-03-18T09:13:00.625Z,5.00
2019-03-18T09:15:31.539Z,5.00
2019-03-18T09:18:02.304Z,5.10
2019-03-18T09:20:32.887Z,5.30
2019-03-18T09:23:04.043Z,5.40
2019-03-18T09:25:34.809Z,5.20
2019-03-18T09:28:05.402Z,5.30
2019-03-18T09:30:36.689Z,5.50
2019-03-18T09:33:07.845Z,5.30
2019-03-18T09:35:38.432Z,5.00
2019-03-18T09:38:09.037Z,4.90
2019-03-18T09:40:40.451Z,4.90
2019-03-18T09:43:11.390Z,4.70
2019-03-18T09:45:42.274Z,4.80
2019-03-18T09:48:13.376Z,4.70
2019-03-18T09:50:44.364Z,4.70
2019-03-18T09:53:15.249Z,4.60
2019-03-18T09:55:46.061Z,4.60
2019-03-18T09:58:16.661Z,4.50
2019-03-18T10:00:47.236Z,4.50
2019-03-18T10:03:18.053Z,4.40
2019-03-18T10:05:48.638Z,4.30
2019-03-18T10:08:19.559Z,4.30
2019-03-18T10:10:50.298Z,4.30
2019-03-18T10:13:20.971Z,4.40
2019-03-18T10:15:51.916Z,4.50
2019-03-18T10:18:22.628Z,4.40
2019-03-18T10:20:53.198Z,4.20
2019-03-18T10:23:23.869Z,4.30
2019-03-18T10:25:54.607Z,4.30
2019-03-18T10:28:25.567Z,4.30
2019-03-18T10:30:56.173Z,4.50
2019-03-18T10:33:26.911Z,4.60
2019-03-18T10:35:57.502Z,4.80
2019-03-18T10:38:28.100Z,5.10
2019-03-18T10:40:59.932Z,5.20
2019-03-18T10:43:30.644Z,5.30
2019-03-18T10:46:01.249Z,5.70
2019-03-18T10:48:32.297Z,5.80
2019-03-18T10:51:03.402Z,5.60
2019-03-18T10:53:34.763Z,5.70
2019-03-18T10:56:07.984Z,5.70
2019-03-18T10:58:37.760Z,6.00
2019-03-18T11:01:08.913Z,6.10
2019-03-18T11:03:39.854Z,6.30
2019-03-18T11:06:10.451Z,6.20
2019-03-18T11:08:41.167Z,6.80
2019-03-18T11:11:11.772Z,6.90
2019-03-18T11:13:42.684Z,6.50
2019-03-18T11:16:13.488Z,6.50
2019-03-18T11:18:44.451Z,7.30
2019-03-18T11:21:15.735Z,7.90
2019-03-18T11:23:46.501Z,7.40
2019-03-18T11:26:17.760Z,7.40
2019-03-18T11:28:48.357Z,7.30
2019-03-18T11:31:19.102Z,7.10
2019-03-18T11:33:50.059Z,7.30
2019-03-18T11:36:20.956Z,7.40
2019-03-18T11:38:51.990Z,7.20
2019-03-18T11:41:22.596Z,7.00
2019-03-18T11:43:53.540Z,7.50
2019-03-18T11:46:24.341Z,7.60
2019-03-18T11:48:54.913Z,8.10
2019-03-18T11:51:25.708Z,8.10
2019-03-18T11:53:56.430Z,7.50
2019-03-18T11:56:27.390Z,8.20
2019-03-18T11:58:57.966Z,7.30
2019-03-18T12:01:28.729Z,7.30
2019-03-18T12:03:59.291Z,6.90
2019-03-18T12:06:30.157Z,6.80
2019-03-18T12:09:01.959Z,6.90
2019-03-18T12:11:32.547Z,6.60
2019-03-18T12:14:03.494Z,6.90
2019-03-18T12:16:34.152Z,7.30
2019-03-18T12:19:04.841Z,7.70
2019-03-18T12:21:35.485Z,8.20
2019-03-18T12:24:06.277Z,9.00
2019-03-18T12:26:36.886Z,9.30
2019-03-18T12:29:07.455Z,9.10
2019-03-18T12:31:38.884Z,8.00
2019-03-18T12:34:09.476Z,7.10
2019-03-18T12:36:40.158Z,6.80
2019-03-18T12:39:10.891Z,6.40
2019-03-18T12:41:41.503Z,5.70
2019-03-18T12:44:12.202Z,5.60
2019-03-18T12:46:42.958Z,6.80
2019-03-18T12:49:13.529Z,7.80
2019-03-18T12:51:44.591Z,8.00
2019-03-18T12:54:15.375Z,8.70
2019-03-18T12:56:45.967Z,8.30
2019-03-18T12:59:17.000Z,8.30
2019-03-18T13:01:48.237Z,8.40
2019-03-18T13:04:19.191Z,8.60
2019-03-18T13:06:50.117Z,10.10
2019-03-18T13:09:20.892Z,10.10
2019-03-18T13:11:51.852Z,9.80
2019-03-18T13:14:22.457Z,10.10
2019-03-18T13:16:53.648Z,9.40
2019-03-18T13:19:24.250Z,9.60
2019-03-18T13:21:54.923Z,9.60
2019-03-18T13:24:25.706Z,10.10
2019-03-18T13:26:58.696Z,9.90
2019-03-18T13:29:29.345Z,9.50
2019-03-18T13:31:59.950Z,9.00
2019-03-18T13:34:30.538Z,9.40
2019-03-18T13:37:01.122Z,10.10
2019-03-18T13:39:32.169Z,10.20
2019-03-18T13:42:03.109Z,10.90
2019-03-18T13:44:33.726Z,10.90
2019-03-18T13:47:04.450Z,10.70
2019-03-18T13:49:35.664Z,10.10
2019-03-18T13:52:06.252Z,10.10
2019-03-18T13:54:36.869Z,9.50
2019-03-18T13:57:07.458Z,9.60
2019-03-18T13:59:38.254Z,9.90
2019-03-18T14:02:09.219Z,8.90
2019-03-18T14:04:39.834Z,9.20
2019-03-18T14:07:10.605Z,9.40
2019-03-18T14:09:41.202Z,10.00
2019-03-18T14:12:11.777Z,8.40
2019-03-18T14:14:42.548Z,8.40
2019-03-18T14:17:13.155Z,8.00
2019-03-18T14:19:43.740Z,7.30
2019-03-18T14:22:14.838Z,7.00
2019-03-18T14:24:45.442Z,6.60
2019-03-18T14:27:16.043Z,6.00
2019-03-18T14:29:46.815Z,5.80
2019-03-18T14:32:17.426Z,5.90
2019-03-18T14:34:48.513Z,5.70
2019-03-18T14:37:19.280Z,5.80
2019-03-18T14:39:49.912Z,5.50
2019-03-18T14:42:20.443Z,5.50
2019-03-18T14:44:51.220Z,5.50
2019-03-18T14:47:21.708Z,5.50
2019-03-18T14:49:52.232Z,5.40
2019-03-18T14:52:23.014Z,5.40
2019-03-18T14:54:53.610Z,5.60
2019-03-18T14:57:24.202Z,7.50
2019-03-18T14:59:55.193Z,8.40
2019-03-18T15:02:26.070Z,7.60
2019-03-18T15:04:56.650Z,7.30
2019-03-18T15:07:28.191Z,7.20
2019-03-18T15:09:58.775Z,6.90
2019-03-18T15:12:29.353Z,7.00
2019-03-18T15:15:00.001Z,7.40
2019-03-18T15:17:30.634Z,7.60
2019-03-18T15:20:01.511Z,7.00
2019-03-18T15:22:32.214Z,6.90
2019-03-18T15:25:02.920Z,6.50
2019-03-18T15:27:33.514Z,6.30
2019-03-18T15:30:05.185Z,5.70
2019-03-18T15:32:35.786Z,4.70
2019-03-18T15:35:06.951Z,4.20
2019-03-18T15:37:37.663Z,3.80
2019-03-18T15:40:08.828Z,3.50
2019-03-18T15:42:39.448Z,3.40
2019-03-18T15:45:11.387Z,3.60
2019-03-18T15:47:41.971Z,3.90
2019-03-18T15:50:15.430Z,4.10
2019-03-18T15:52:46.158Z,4.60
2019-03-18T15:55:17.041Z,6.50
2019-03-18T15:57:47.750Z,8.00
2019-03-18T16:00:19.595Z,9.40
2019-03-18T16:02:50.304Z,10.10
2019-03-18T16:05:20.872Z,9.40
2019-03-18T16:07:51.582Z,10.00
2019-03-18T16:10:22.534Z,9.00
2019-03-18T16:12:53.834Z,8.70
2019-03-18T16:15:24.406Z,8.30
2019-03-18T16:17:55.098Z,8.00
2019-03-18T16:20:25.698Z,8.70
2019-03-18T16:22:56.357Z,7.70
2019-03-18T16:25:27.194Z,6.70
2019-03-18T16:27:58.156Z,5.80
2019-03-18T16:30:28.755Z,5.40
2019-03-18T16:32:59.520Z,5.30
2019-03-18T16:35:30.156Z,5.30
2019-03-18T16:38:00.738Z,5.50
2019-03-18T16:40:31.506Z,5.40
2019-03-18T16:43:02.093Z,5.30
2019-03-18T16:45:33.100Z,5.10
2019-03-18T16:48:03.812Z,5.00
2019-03-18T16:50:34.408Z,4.90
2019-03-18T16:53:04.967Z,4.80
2019-03-18T16:55:35.751Z,4.70
2019-03-18T16:58:06.345Z,4.60
2019-03-18T17:00:36.922Z,4.60
2019-03-18T17:03:07.516Z,4.60
2019-03-18T17:05:38.291Z,4.60
2019-03-18T17:08:08.882Z,4.60
2019-03-18T17:10:39.453Z,4.50
2019-03-18T17:13:10.225Z,4.40
2019-03-18T17:15:41.214Z,4.40
2019-03-18T17:18:11.879Z,4.40
2019-03-18T17:20:42.739Z,4.30
2019-03-18T17:23:13.342Z,4.30
2019-03-18T17:25:43.935Z,4.30
2019-03-18T17:28:14.987Z,4.20
2019-03-18T17:30:45.969Z,4.20
2019-03-18T17:33:16.970Z,4.20
2019-03-18T17:35:47.778Z,4.20
2019-03-18T17:38:18.733Z,4.20
2019-03-18T17:40:49.340Z,4.10
2019-03-18T17:43:20.293Z,4.20
2019-03-18T17:45:50.894Z,4.10
2019-03-18T17:48:21.585Z,4.10
2019-03-18T17:50:52.351Z,4.00
2019-03-18T17:53:22.925Z,4.10
2019-03-18T17:55:53.529Z,4.10
2019-03-18T17:58:24.245Z,4.20
2019-03-18T18:00:54.845Z,4.20
2019-03-18T18:03:25.423Z,4.00
2019-03-18T18:05:56.093Z,4.00
2019-03-18T18:08:26.951Z,4.20
2019-03-18T18:10:57.598Z,4.30
2019-03-18T18:13:28.339Z,4.20
2019-03-18T18:15:58.950Z,4.20
2019-03-18T18:18:29.499Z,4.20
2019-03-18T18:21:00.234Z,4.20
2019-03-18T18:23:31.116Z,4.20
2019-03-18T18:26:01.703Z,4.10
2019-03-18T18:28:33.100Z,4.10
2019-03-18T18:31:03.676Z,4.10
2019-03-18T18:33:34.263Z,4.10
2019-03-18T18:36:05.029Z,4.00
2019-03-18T18:38:35.640Z,4.00
2019-03-18T18:41:06.195Z,4.00
2019-03-18T18:43:36.958Z,4.10
2019-03-18T18:46:07.534Z,4.00
2019-03-18T18:48:38.116Z,3.80
2019-03-18T18:51:08.761Z,3.90
2019-03-18T18:53:39.358Z,4.00
2019-03-18T18:56:09.931Z,4.10
2019-03-18T18:58:40.645Z,4.00
2019-03-18T19:01:13.337Z,4.00
2019-03-18T19:03:43.551Z,4.00
2019-03-18T19:06:14.285Z,4.00
2019-03-18T19:08:44.890Z,4.00
2019-03-18T19:11:15.783Z,3.90
2019-03-18T19:13:46.553Z,3.90
2019-03-18T19:16:17.124Z,3.90
2019-03-18T19:18:47.734Z,3.90
2019-03-18T19:21:18.446Z,3.70
2019-03-18T19:23:49.054Z,3.70
2019-03-18T19:26:19.635Z,3.70
2019-03-18T19:28:50.363Z,3.60
2019-03-18T19:31:20.935Z,3.70
2019-03-18T19:33:51.684Z,3.70
2019-03-18T19:36:22.557Z,3.70
2019-03-18T19:38:53.499Z,3.60
2019-03-18T19:41:24.520Z,3.60
2019-03-18T19:43:55.333Z,3.60
2019-03-18T19:46:25.926Z,3.60
2019-03-18T19:48:56.631Z,3.50
2019-03-18T19:51:27.327Z,3.50
2019-03-18T19:53:57.920Z,3.50
2019-03-18T19:56:28.509Z,3.50
2019-03-18T19:58:59.241Z,3.50
2019-03-18T20:01:29.918Z,3.50
2019-03-18T20:04:00.646Z,3.40
2019-03-18T20:06:31.273Z,3.30
2019-03-18T20:09:02.735Z,3.10
2019-03-18T20:11:33.818Z,3.10
2019-03-18T20:14:04.513Z,3.20
2019-03-18T20:16:35.223Z,3.30
2019-03-18T20:19:06.483Z,3.30
2019-03-18T20:21:37.479Z,3.40
2019-03-18T20:24:08.457Z,3.30
2019-03-18T20:26:39.204Z,3.30
2019-03-18T20:29:10.352Z,3.20
2019-03-18T20:31:40.903Z,3.20
2019-03-18T20:34:11.538Z,3.20
2019-03-18T20:36:42.304Z,3.10
2019-03-18T20:39:12.863Z,3.10
2019-03-18T20:41:43.873Z,3.10
2019-03-18T20:44:15.271Z,3.00
2019-03-18T20:46:46.294Z,3.10
2019-03-18T20:49:17.152Z,3.10
2019-03-18T20:51:48.001Z,3.10
2019-03-18T20:54:19.123Z,3.00
2019-03-18T20:56:49.930Z,3.00
2019-03-18T20:59:20.895Z,3.00
2019-03-18T21:01:51.867Z,3.00
2019-03-18T21:04:22.805Z,2.90
2019-03-18T21:06:53.882Z,2.90
2019-03-18T21:09:24.758Z,3.00
2019-03-18T21:11:55.532Z,2.90
2019-03-18T21:14:26.191Z,2.80
2019-03-18T21:16:57.069Z,2.80
2019-03-18T21:19:27.962Z,2.80
2019-03-18T21:21:58.722Z,2.80
2019-03-18T21:24:29.321Z,2.80
2019-03-18T21:27:00.829Z,2.70
2019-03-18T21:29:32.316Z,2.60
2019-03-18T21:32:03.220Z,2.60
2019-03-18T21:34:33.969Z,2.70
2019-03-18T21:37:04.701Z,2.60
2019-03-18T21:39:35.403Z,2.60
2019-03-18T21:42:06.564Z,2.60
2019-03-18T21:44:37.636Z,2.60
2019-03-18T21:47:08.445Z,2.60
2019-03-18T21:49:39.354Z,2.50
2019-03-18T21:52:10.027Z,2.50
2019-03-18T21:54:41.045Z,2.50
2019-03-18T21:57:12.168Z,2.50
2019-03-18T21:59:43.454Z,2.50
2019-03-18T22:02:14.071Z,2.40
2019-03-18T22:04:45.539Z,2.40
2019-03-18T22:07:16.221Z,2.30
2019-03-18T22:09:47.477Z,2.30
2019-03-18T22:12:18.759Z,2.30
2019-03-18T22:14:49.623Z,2.30
2019-03-18T22:17:20.329Z,2.30
2019-03-18T22:19:51.097Z,2.20
2019-03-18T22:22:22.125Z,2.20
2019-03-18T22:24:52.821Z,2.20
2019-03-18T22:27:23.513Z,2.20
2019-03-18T22:29:54.118Z,2.20
2019-03-18T22:32:25.126Z,2.20
2019-03-18T22:34:55.708Z,2.20
2019-03-18T22:37:26.385Z,2.20
2019-03-18T22:39:57.219Z,2.30
2019-03-18T22:42:28.716Z,2.30
2019-03-18T22:44:59.443Z,2.40
2019-03-18T22:47:30.092Z,2.40
2019-03-18T22:50:01.002Z,2.50
2019-03-18T22:52:31.675Z,2.50
2019-03-18T22:55:02.872Z,2.50
2019-03-18T22:57:33.522Z,2.50
2019-03-18T23:00:04.799Z,2.50
2019-03-18T23:02:35.527Z,2.50
2019-03-18T23:05:06.913Z,2.40
2019-03-18T23:07:37.486Z,2.50
2019-03-18T23:10:08.341Z,2.50
2019-03-18T23:12:38.918Z,2.40
2019-03-18T23:15:09.752Z,2.40
2019-03-18T23:17:40.547Z,2.40
2019-03-18T23:20:11.258Z,2.40
2019-03-18T23:22:41.944Z,2.40
2019-03-18T23:25:12.539Z,2.40
2019-03-18T23:27:43.220Z,2.40
2019-03-18T23:30:13.830Z,2.40
2019-03-18T23:32:44.501Z,2.40
2019-03-18T23:35:15.543Z,2.50
2019-03-18T23:37:46.135Z,2.50
2019-03-18T23:40:16.720Z,2.40
2019-03-18T23:42:47.401Z,2.40
2019-03-18T23:45:17.996Z,2.40
2019-03-18T23:47:48.583Z,2.40
2019-03-18T23:50:19.315Z,2.30
2019-03-18T23:52:50.328Z,2.30
2019-03-18T23:55:20.978Z,2.30
2019-03-18T23:57:54.188Z,2.30
